Time;durP1;ratioP1;P1;durP2;ratioP2;P2;SDS_P1;SDS_P2;PMS_P1;PMS_P2;Temp;Humidity;BMP_temperature;BMP_pressure;BME280_temperature;BME280_humidity;BME280_pressure;Samples;Min_cycle;Max_cycle;Signal;HPM_P1;HPM_P2
2021/03/10 00:01:13;;;;;;;2.72;2.52;;;;;;;18.88;41.73;100617.59;;;;-51
2021/03/10 00:04:13;;;;;;;2.65;2.44;;;;;;;18.87;41.77;100617.84;;;;-52
2021/03/10 00:07:13;;;;;;;2.50;2.30;;;;;;;18.85;41.78;100623.02;;;;-52
2021/03/10 00:10:13;;;;;;;2.66;2.46;;;;;;;18.84;41.81;100626.72;;;;-52
2021/03/10 00:13:13;;;;;;;2.79;2.55;;;;;;;18.81;41.89;100629.05;;;;-52
2021/03/10 00:16:13;;;;;;;2.70;2.50;;;;;;;18.79;41.85;100628.05;;;;-52
2021/03/10 00:19:13;;;;;;;3.47;2.60;;;;;;;18.77;41.87;100632.22;;;;-52
2021/03/10 00:22:13;;;;;;;2.62;2.42;;;;;;;18.75;41.88;100631.30;;;;-52
2021/03/10 00:25:13;;;;;;;2.59;2.39;;;;;;;18.73;41.86;100633.87;;;;-52
2021/03/10 00:28:13;;;;;;;2.59;2.39;;;;;;;18.71;41.92;100637.26;;;;-51
2021/03/10 00:31:13;;;;;;;2.57;2.37;;;;;;;18.69;41.91;100645.52;;;;-52
2021/03/10 00:34:13;;;;;;;3.04;2.74;;;;;;;18.67;41.95;100647.36;;;;-52
2021/03/10 00:37:13;;;;;;;3.03;2.74;;;;;;;18.66;41.95;100650.36;;;;-52
2021/03/10 00:40:13;;;;;;;2.92;2.50;;;;;;;18.63;41.98;100649.90;;;;-52
2021/03/10 00:43:13;;;;;;;2.76;2.56;;;;;;;18.62;41.98;100646.33;;;;-51
2021/03/10 00:46:13;;;;;;;2.49;2.29;;;;;;;18.61;41.98;100649.95;;;;-52
2021/03/10 00:49:13;;;;;;;2.61;2.41;;;;;;;18.58;42.05;100650.33;;;;-52
2021/03/10 00:52:13;;;;;;;2.84;2.53;;;;;;;18.57;41.98;100654.28;;;;-52
2021/03/10 00:55:13;;;;;;;2.84;2.59;;;;;;;18.56;42.05;100652.42;;;;-52
2021/03/10 00:58:13;;;;;;;2.60;2.40;;;;;;;18.54;42.07;100651.17;;;;-52
2021/03/10 01:01:13;;;;;;;2.69;2.49;;;;;;;18.53;42.05;100647.57;;;;-53
2021/03/10 01:04:13;;;;;;;2.71;2.51;;;;;;;18.51;42.05;100646.60;;;;-52
2021/03/10 01:07:13;;;;;;;2.92;2.62;;;;;;;18.49;42.09;100644.44;;;;-52
2021/03/10 01:10:13;;;;;;;2.49;2.29;;;;;;;18.48;42.03;100643.70;;;;-52
2021/03/10 01:13:13;;;;;;;2.72;2.52;;;;;;;18.46;42.14;100641.65;;;;-52
2021/03/10 01:16:13;;;;;;;3.03;2.73;;;;;;;18.44;42.10;100643.24;;;;-52
2021/03/10 01:19:13;;;;;;;2.51;2.31;;;;;;;18.44;42.13;100650.55;;;;-51
2021/03/10 01:22:13;;;;;;;2.58;2.38;;;;;;;18.42;42.13;100647.03;;;;-52
2021/03/10 01:25:13;;;;;;;2.93;2.67;;;;;;;18.41;42.15;100646.05;;;;-52
2021/03/10 01:28:13;;;;;;;2.65;2.45;;;;;;;18.40;42.10;100641.23;;;;-52
2021/03/10 01:31:13;;;;;;;2.70;2.50;;;;;;;18.38;42.13;100645.84;;;;-52
2021/03/10 01:34:13;;;;;;;2.58;2.38;;;;;;;18.36;42.18;100649.81;;;;-52
2021/03/10 01:37:13;;;;;;;2.81;2.61;;;;;;;18.35;42.23;100648.81;;;;-52
2021/03/10 01:40:13;;;;;;;2.74;2.54;;;;;;;18.32;42.16;100643.97;;;;-51
2021/03/10 01:43:13;;;;;;;2.67;2.47;;;;;;;18.32;42.24;100640.56;;;;-52
2021/03/10 01:46:13;;;;;;;2.69;2.49;;;;;;;18.31;42.22;100640.16;;;;-52
2021/03/10 01:49:13;;;;;;;2.69;2.49;;;;;;;18.28;42.20;100636.55;;;;-52
2021/03/10 01:52:13;;;;;;;2.81;2.61;;;;;;;18.27;42.19;100628.49;;;;-52
2021/03/10 01:55:13;;;;;;;2.78;2.53;;;;;;;18.27;42.27;100625.57;;;;-52
2021/03/10 01:58:13;;;;;;;2.90;2.51;;;;;;;18.25;42.27;100621.48;;;;-52
2021/03/10 02:01:13;;;;;;;2.66;2.46;;;;;;;18.24;42.27;100622.30;;;;-52
2021/03/10 02:04:13;;;;;;;2.92;2.69;;;;;;;18.23;42.30;100614.32;;;;-53
2021/03/10 02:07:13;;;;;;;2.72;2.52;;;;;;;18.21;42.25;100615.27;;;;-52
2021/03/10 02:10:13;;;;;;;2.77;2.57;;;;;;;18.21;42.32;100612.27;;;;-52
2021/03/10 02:13:13;;;;;;;3.00;2.70;;;;;;;18.20;42.30;100608.99;;;;-53
2021/03/10 02:16:13;;;;;;;2.65;2.45;;;;;;;18.18;42.34;100610.34;;;;-52
2021/03/10 02:19:13;;;;;;;2.76;2.56;;;;;;;18.17;42.31;100614.31;;;;-51
2021/03/10 02:22:13;;;;;;;2.73;2.48;;;;;;;18.16;42.31;100615.45;;;;-52
2021/03/10 02:25:13;;;;;;;3.01;2.73;;;;;;;18.15;42.33;100618.98;;;;-52
2021/03/10 02:28:13;;;;;;;2.70;2.50;;;;;;;18.14;42.33;100624.99;;;;-52
2021/03/10 02:31:13;;;;;;;3.17;2.67;;;;;;;18.13;42.33;100634.70;;;;-52
2021/03/10 02:34:13;;;;;;;2.70;2.50;;;;;;;18.12;42.36;100634.53;;;;-52
2021/03/10 02:37:13;;;;;;;2.64;2.44;;;;;;;18.10;42.31;100631.42;;;;-51
2021/03/10 02:40:13;;;;;;;2.82;2.60;;;;;;;18.10;42.35;100631.75;;;;-52
2021/03/10 02:43:13;;;;;;;2.91;2.71;;;;;;;18.07;42.39;100629.84;;;;-52
2021/03/10 02:46:13;;;;;;;3.48;2.67;;;;;;;18.07;42.41;100629.98;;;;-52
2021/03/10 02:49:13;;;;;;;2.69;2.49;;;;;;;18.07;42.32;100633.80;;;;-51
2021/03/10 02:52:13;;;;;;;2.83;2.63;;;;;;;18.05;42.31;100644.55;;;;-52
2021/03/10 02:55:13;;;;;;;2.77;2.57;;;;;;;18.03;42.36;100657.20;;;;-52
2021/03/10 02:58:13;;;;;;;2.85;2.65;;;;;;;18.03;42.41;100653.19;;;;-52
2021/03/10 03:01:13;;;;;;;2.80;2.60;;;;;;;18.01;42.43;100656.35;;;;-52
2021/03/10 03:04:13;;;;;;;3.15;2.60;;;;;;;18.01;42.38;100659.00;;;;-52
2021/03/10 03:07:13;;;;;;;2.99;2.75;;;;;;;18.00;42.42;100660.22;;;;-52
2021/03/10 03:10:13;;;;;;;2.85;2.65;;;;;;;17.98;42.42;100660.91;;;;-52
2021/03/10 03:13:13;;;;;;;2.68;2.48;;;;;;;17.97;42.41;100659.02;;;;-52
2021/03/10 03:16:13;;;;;;;2.89;2.67;;;;;;;17.95;42.44;100655.85;;;;-52
2021/03/10 03:19:13;;;;;;;2.85;2.65;;;;;;;17.95;42.41;100656.91;;;;-52
2021/03/10 03:22:13;;;;;;;3.02;2.77;;;;;;;17.94;42.47;100657.93;;;;-52
2021/03/10 03:25:13;;;;;;;2.75;2.55;;;;;;;17.93;42.43;100663.60;;;;-52
2021/03/10 03:28:13;;;;;;;2.95;2.75;;;;;;;17.92;42.48;100662.59;;;;-52
2021/03/10 03:31:13;;;;;;;2.80;2.60;;;;;;;17.92;42.48;100670.78;;;;-52
2021/03/10 03:34:13;;;;;;;2.69;2.49;;;;;;;17.91;42.48;100671.67;;;;-52
2021/03/10 03:37:13;;;;;;;3.81;2.70;;;;;;;17.90;42.46;100678.62;;;;-52
2021/03/10 03:40:13;;;;;;;2.83;2.63;;;;;;;17.89;42.49;100682.27;;;;-52
2021/03/10 03:43:13;;;;;;;2.77;2.57;;;;;;;17.87;42.53;100671.53;;;;-52
2021/03/10 03:46:13;;;;;;;2.78;2.58;;;;;;;17.87;42.50;100666.09;;;;-52
2021/03/10 03:49:13;;;;;;;2.80;2.60;;;;;;;17.86;42.51;100665.58;;;;-52
2021/03/10 03:52:13;;;;;;;2.67;2.47;;;;;;;17.85;42.53;100678.63;;;;-52
2021/03/10 03:55:13;;;;;;;2.73;2.53;;;;;;;17.84;42.52;100675.03;;;;-52
2021/03/10 03:58:13;;;;;;;2.91;2.61;;;;;;;17.83;42.54;100669.19;;;;-52
2021/03/10 04:01:13;;;;;;;2.77;2.57;;;;;;;17.82;42.54;100663.13;;;;-52
2021/03/10 04:04:13;;;;;;;3.17;2.67;;;;;;;17.82;42.54;100666.38;;;;-52
2021/03/10 04:07:13;;;;;;;2.99;2.70;;;;;;;17.82;42.56;100674.72;;;;-52
2021/03/10 04:10:13;;;;;;;3.09;2.79;;;;;;;17.81;42.56;100673.27;;;;-52
2021/03/10 04:13:13;;;;;;;2.88;2.67;;;;;;;17.79;42.58;100672.66;;;;-52
2021/03/10 04:16:13;;;;;;;2.78;2.58;;;;;;;17.78;42.57;100674.20;;;;-52
2021/03/10 04:19:13;;;;;;;2.72;2.52;;;;;;;17.77;42.57;100676.44;;;;-52
2021/03/10 04:22:13;;;;;;;2.82;2.62;;;;;;;17.77;42.53;100682.27;;;;-52
2021/03/10 04:25:13;;;;;;;3.12;2.82;;;;;;;17.76;42.54;100682.27;;;;-52
2021/03/10 04:28:13;;;;;;;2.99;2.69;;;;;;;17.76;42.58;100683.05;;;;-52
2021/03/10 04:31:13;;;;;;;3.16;2.86;;;;;;;17.74;42.54;100687.47;;;;-52
2021/03/10 04:34:13;;;;;;;3.11;2.81;;;;;;;17.74;42.58;100689.66;;;;-52
2021/03/10 04:37:13;;;;;;;3.13;2.83;;;;;;;17.73;42.62;100692.81;;;;-52
2021/03/10 04:40:13;;;;;;;2.88;2.68;;;;;;;17.71;42.55;100690.84;;;;-52
2021/03/10 04:43:13;;;;;;;3.09;2.78;;;;;;;17.71;42.64;100689.70;;;;-52
2021/03/10 04:46:13;;;;;;;3.11;2.81;;;;;;;17.71;42.58;100693.43;;;;-52
2021/03/10 04:49:13;;;;;;;2.81;2.60;;;;;;;17.69;42.61;100695.09;;;;-52
2021/03/10 04:52:13;;;;;;;3.07;2.77;;;;;;;17.69;42.65;100699.96;;;;-52
2021/03/10 04:55:13;;;;;;;3.19;2.89;;;;;;;17.68;42.64;100705.80;;;;-52
2021/03/10 04:58:13;;;;;;;3.14;2.80;;;;;;;17.67;42.66;100705.27;;;;-52
2021/03/10 05:01:13;;;;;;;2.61;2.41;;;;;;;17.66;42.64;100709.16;;;;-52
2021/03/10 05:04:13;;;;;;;2.89;2.69;;;;;;;17.66;42.67;100705.59;;;;-52
2021/03/10 05:07:13;;;;;;;3.17;2.86;;;;;;;17.66;42.88;100705.08;;;;-46
2021/03/10 05:10:13;;;;;;;3.43;2.97;;;;;;;17.65;42.88;100705.16;;;;-48
2021/03/10 05:13:13;;;;;;;3.17;2.87;;;;;;;17.65;42.97;100706.20;;;;-51
2021/03/10 05:16:13;;;;;;;3.67;3.22;;;;;;;17.65;43.04;100714.31;;;;-51
2021/03/10 05:19:13;;;;;;;3.62;3.27;;;;;;;17.65;43.13;100713.50;;;;-49
2021/03/10 05:22:13;;;;;;;3.46;3.16;;;;;;;17.64;43.16;100713.42;;;;-47
2021/03/10 05:25:13;;;;;;;3.99;3.32;;;;;;;17.63;43.22;100709.17;;;;-47
2021/03/10 05:28:13;;;;;;;3.71;3.41;;;;;;;17.64;43.17;100707.58;;;;-53
2021/03/10 05:31:13;;;;;;;3.97;3.28;;;;;;;17.64;43.21;100707.42;;;;-54
2021/03/10 05:34:13;;;;;;;3.57;3.27;;;;;;;17.65;43.27;100710.19;;;;-49
2021/03/10 05:37:13;;;;;;;4.08;3.61;;;;;;;17.64;43.23;100702.56;;;;-50
2021/03/10 05:40:15;;;;;;;3.93;3.61;;;;;;;17.65;43.26;100707.18;;;;-55
2021/03/10 05:43:13;;;;;;;3.65;3.35;;;;;;;17.64;43.26;100714.23;;;;-52
2021/03/10 05:46:13;;;;;;;4.19;3.61;;;;;;;17.64;43.33;100720.80;;;;-49
2021/03/10 05:49:13;;;;;;;4.80;3.73;;;;;;;17.64;43.23;100721.36;;;;-46
2021/03/10 05:52:13;;;;;;;4.22;3.71;;;;;;;17.65;43.15;100720.88;;;;-47
2021/03/10 05:55:13;;;;;;;4.25;3.85;;;;;;;17.66;43.22;100720.42;;;;-50
2021/03/10 05:58:13;;;;;;;4.10;3.74;;;;;;;17.65;43.25;100722.91;;;;-54
2021/03/10 06:01:13;;;;;;;5.14;3.77;;;;;;;17.65;43.25;100723.39;;;;-49
2021/03/10 06:04:13;;;;;;;3.88;3.52;;;;;;;17.65;43.32;100719.42;;;;-52
2021/03/10 06:07:13;;;;;;;8.17;4.90;;;;;;;17.62;43.04;100727.86;;;;-51
2021/03/10 06:10:14;;;;;;;13.57;11.40;;;;;;;17.47;42.38;100736.26;;;;-51
2021/03/10 06:13:13;;;;;;;15.21;13.03;;;;;;;17.35;42.26;100743.42;;;;-51
2021/03/10 06:16:13;;;;;;;15.42;12.16;;;;;;;17.37;42.60;100744.19;;;;-52
2021/03/10 06:19:13;;;;;;;14.08;10.24;;;;;;;17.40;42.70;100742.70;;;;-52
2021/03/10 06:22:13;;;;;;;11.93;9.25;;;;;;;17.43;42.58;100741.39;;;;-52
2021/03/10 06:25:13;;;;;;;9.91;8.17;;;;;;;17.46;42.61;100745.73;;;;-51
2021/03/10 06:28:13;;;;;;;9.98;8.26;;;;;;;17.49;42.57;100743.67;;;;-51
2021/03/10 06:31:13;;;;;;;8.83;7.89;;;;;;;17.52;42.66;100744.55;;;;-51
2021/03/10 06:34:13;;;;;;;8.39;7.12;;;;;;;17.55;42.57;100748.41;;;;-51
2021/03/10 06:37:13;;;;;;;8.79;6.52;;;;;;;17.58;42.67;100748.72;;;;-52
2021/03/10 06:40:13;;;;;;;8.07;6.45;;;;;;;17.61;42.80;100753.14;;;;-51
2021/03/10 06:43:13;;;;;;;7.11;6.04;;;;;;;17.64;42.79;100748.44;;;;-51
2021/03/10 06:46:13;;;;;;;6.97;5.71;;;;;;;17.68;42.75;100749.80;;;;-51
2021/03/10 06:49:13;;;;;;;5.94;5.16;;;;;;;17.73;42.72;100748.42;;;;-52
2021/03/10 06:52:13;;;;;;;6.47;5.00;;;;;;;17.76;42.66;100754.14;;;;-52
2021/03/10 06:55:13;;;;;;;5.75;4.71;;;;;;;17.81;42.72;100751.41;;;;-51
2021/03/10 06:58:13;;;;;;;5.83;4.59;;;;;;;17.84;42.73;100759.34;;;;-51
2021/03/10 07:01:13;;;;;;;5.48;4.42;;;;;;;17.88;42.70;100766.22;;;;-51
2021/03/10 07:04:13;;;;;;;5.20;4.24;;;;;;;17.93;42.67;100769.70;;;;-51
2021/03/10 07:07:13;;;;;;;5.09;4.12;;;;;;;17.95;42.73;100771.72;;;;-51
2021/03/10 07:10:13;;;;;;;4.77;3.91;;;;;;;17.98;42.82;100776.06;;;;-51
2021/03/10 07:13:13;;;;;;;4.43;3.66;;;;;;;18.01;42.90;100783.64;;;;-52
2021/03/10 07:16:13;;;;;;;4.37;3.96;;;;;;;18.03;42.72;100786.67;;;;-51
2021/03/10 07:19:13;;;;;;;4.19;3.77;;;;;;;18.05;42.82;100789.95;;;;-51
2021/03/10 07:22:13;;;;;;;3.85;3.48;;;;;;;18.06;42.86;100798.66;;;;-52
2021/03/10 07:25:13;;;;;;;4.07;3.58;;;;;;;18.08;42.85;100801.54;;;;-51
2021/03/10 07:28:13;;;;;;;3.90;3.46;;;;;;;18.08;42.83;100806.73;;;;-51
2021/03/10 07:31:13;;;;;;;3.79;3.42;;;;;;;18.10;42.75;100809.93;;;;-51
2021/03/10 07:34:13;;;;;;;3.49;3.19;;;;;;;18.10;42.71;100808.14;;;;-51
2021/03/10 07:37:13;;;;;;;3.52;3.21;;;;;;;18.11;42.78;100806.13;;;;-51
2021/03/10 07:40:13;;;;;;;3.55;3.25;;;;;;;18.11;42.67;100815.12;;;;-51
2021/03/10 07:43:13;;;;;;;3.59;3.29;;;;;;;18.11;42.65;100820.80;;;;-52
2021/03/10 07:46:13;;;;;;;3.49;3.19;;;;;;;18.11;42.70;100822.66;;;;-51
2021/03/10 07:49:13;;;;;;;3.35;3.05;;;;;;;18.11;42.75;100827.05;;;;-52
2021/03/10 07:52:13;;;;;;;3.43;3.13;;;;;;;18.11;42.67;100831.42;;;;-51
2021/03/10 07:55:13;;;;;;;3.68;3.09;;;;;;;18.11;42.70;100829.48;;;;-52
2021/03/10 07:58:13;;;;;;;3.59;3.11;;;;;;;18.11;42.73;100832.08;;;;-51
2021/03/10 08:01:13;;;;;;;4.26;3.05;;;;;;;18.10;42.69;100829.80;;;;-52
2021/03/10 08:04:13;;;;;;;3.30;3.00;;;;;;;18.10;42.67;100829.64;;;;-51
2021/03/10 08:07:13;;;;;;;3.22;2.92;;;;;;;18.10;42.68;100827.69;;;;-51
2021/03/10 08:10:13;;;;;;;3.49;3.05;;;;;;;18.10;42.69;100826.39;;;;-52
2021/03/10 08:13:13;;;;;;;3.39;3.09;;;;;;;18.09;42.68;100834.63;;;;-52
2021/03/10 08:16:13;;;;;;;3.52;2.89;;;;;;;18.08;42.67;100835.60;;;;-52
2021/03/10 08:19:13;;;;;;;3.41;3.10;;;;;;;18.08;42.65;100838.36;;;;-51
2021/03/10 08:22:13;;;;;;;3.30;2.99;;;;;;;18.07;42.65;100836.22;;;;-51
2021/03/10 08:25:13;;;;;;;3.12;2.82;;;;;;;18.07;42.68;100839.22;;;;-51
2021/03/10 08:28:13;;;;;;;3.22;2.93;;;;;;;18.06;42.65;100834.52;;;;-51
2021/03/10 08:31:13;;;;;;;3.30;2.99;;;;;;;18.06;42.66;100831.51;;;;-51
2021/03/10 08:34:13;;;;;;;3.73;3.11;;;;;;;18.05;42.63;100831.42;;;;-51
2021/03/10 08:37:13;;;;;;;3.24;2.94;;;;;;;18.04;42.63;100831.72;;;;-52
2021/03/10 08:40:13;;;;;;;3.11;2.81;;;;;;;18.04;42.62;100836.91;;;;-52
2021/03/10 08:43:13;;;;;;;3.14;2.84;;;;;;;18.04;42.67;100840.06;;;;-51
2021/03/10 08:46:13;;;;;;;3.20;2.90;;;;;;;18.03;42.68;100842.06;;;;-52
2021/03/10 08:49:13;;;;;;;11.90;3.37;;;;;;;18.03;42.84;100838.36;;;;-57
2021/03/10 08:52:13;;;;;;;3.91;2.96;;;;;;;18.05;43.30;100835.70;;;;-55
2021/03/10 08:55:13;;;;;;;3.59;2.84;;;;;;;18.08;43.45;100829.59;;;;-60
2021/03/10 08:58:15;;;;;;;3.90;2.86;;;;;;;18.12;43.82;100829.43;;;;-48
2021/03/10 09:01:13;;;;;;;4.71;3.00;;;;;;;18.16;43.97;100834.98;;;;-50
2021/03/10 09:04:13;;;;;;;4.93;3.00;;;;;;;18.22;44.11;100830.59;;;;-50
2021/03/10 09:07:13;;;;;;;3.29;2.99;;;;;;;18.27;43.98;100830.17;;;;-45
2021/03/10 09:10:13;;;;;;;5.77;3.93;;;;;;;18.31;43.86;100823.42;;;;-43
2021/03/10 09:13:13;;;;;;;6.55;3.95;;;;;;;18.38;43.97;100825.08;;;;-49
2021/03/10 09:16:13;;;;;;;5.78;4.11;;;;;;;18.40;43.95;100822.92;;;;-54
2021/03/10 09:19:13;;;;;;;8.67;3.92;;;;;;;18.47;43.83;100822.12;;;;-59
2021/03/10 09:22:13;;;;;;;5.66;3.41;;;;;;;18.56;43.83;100823.02;;;;-54
2021/03/10 09:25:13;;;;;;;7.95;3.49;;;;;;;18.61;43.99;100822.12;;;;-56
2021/03/10 09:28:13;;;;;;;3.90;3.02;;;;;;;18.66;44.03;100824.32;;;;-61
2021/03/10 09:31:13;;;;;;;6.06;3.42;;;;;;;18.71;43.82;100823.41;;;;-57
2021/03/10 09:34:13;;;;;;;4.28;3.04;;;;;;;18.76;43.78;100814.66;;;;-55
2021/03/10 09:37:14;;;;;;;7.38;3.17;;;;;;;18.81;43.85;100815.72;;;;-58
2021/03/10 09:40:13;;;;;;;3.67;3.01;;;;;;;18.83;43.71;100807.06;;;;-56
2021/03/10 09:43:13;;;;;;;3.63;2.75;;;;;;;18.88;44.10;100807.05;;;;-61
2021/03/10 09:46:13;;;;;;;4.37;2.93;;;;;;;18.92;43.87;100798.58;;;;-63
2021/03/10 09:49:13;;;;;;;3.15;2.80;;;;;;;18.95;44.15;100799.69;;;;-58
2021/03/10 09:52:13;;;;;;;3.52;2.83;;;;;;;18.98;44.10;100796.55;;;;-51
2021/03/10 09:55:13;;;;;;;3.07;2.69;;;;;;;19.00;44.10;100802.10;;;;-54
2021/03/10 09:58:13;;;;;;;3.06;2.76;;;;;;;19.05;44.02;100802.02;;;;-57
2021/03/10 10:01:13;;;;;;;3.93;2.85;;;;;;;19.11;43.70;100802.56;;;;-53
2021/03/10 10:04:13;;;;;;;6.64;2.69;;;;;;;19.07;43.50;100796.01;;;;-55
2021/03/10 10:07:13;;;;;;;3.64;2.89;;;;;;;19.10;43.66;100796.64;;;;-67
2021/03/10 10:10:13;;;;;;;4.15;2.87;;;;;;;19.13;43.78;100792.84;;;;-62
2021/03/10 10:13:13;;;;;;;2.92;2.63;;;;;;;19.13;43.73;100797.88;;;;-66
2021/03/10 10:16:13;;;;;;;3.85;2.88;;;;;;;19.13;43.31;100794.74;;;;-61
2021/03/10 10:19:13;;;;;;;3.28;2.67;;;;;;;19.13;43.19;100791.49;;;;-52
2021/03/10 10:22:13;;;;;;;3.46;2.58;;;;;;;19.12;43.00;100794.06;;;;-52
2021/03/10 10:25:13;;;;;;;3.75;2.66;;;;;;;19.15;43.15;100794.98;;;;-53
2021/03/10 10:28:13;;;;;;;2.99;2.61;;;;;;;19.12;42.90;100793.98;;;;-52
2021/03/10 10:31:13;;;;;;;2.68;2.46;;;;;;;19.12;43.00;100790.00;;;;-52
2021/03/10 10:34:13;;;;;;;2.93;2.42;;;;;;;19.14;43.00;100788.23;;;;-52
2021/03/10 10:37:13;;;;;;;4.05;2.87;;;;;;;19.17;43.20;100788.45;;;;-54
2021/03/10 10:40:13;;;;;;;7.25;3.30;;;;;;;19.19;43.22;100785.20;;;;-50
2021/03/10 10:43:13;;;;;;;3.98;2.99;;;;;;;19.23;43.19;100781.11;;;;-52
2021/03/10 10:46:13;;;;;;;3.98;2.74;;;;;;;19.25;43.31;100788.53;;;;-52
2021/03/10 10:49:13;;;;;;;3.31;2.92;;;;;;;19.28;43.29;100790.54;;;;-56
2021/03/10 10:52:13;;;;;;;5.02;3.20;;;;;;;19.26;42.77;100780.73;;;;-53
2021/03/10 10:55:13;;;;;;;6.33;3.67;;;;;;;19.24;42.72;100779.67;;;;-53
2021/03/10 10:58:13;;;;;;;4.36;3.77;;;;;;;19.23;42.85;100775.51;;;;-54
2021/03/10 11:01:13;;;;;;;5.20;3.50;;;;;;;19.24;42.88;100776.67;;;;-56
2021/03/10 11:04:13;;;;;;;3.99;3.49;;;;;;;19.25;42.83;100780.00;;;;-52
2021/03/10 11:07:13;;;;;;;6.52;3.58;;;;;;;19.29;42.54;100777.70;;;;-49
2021/03/10 11:10:13;;;;;;;5.40;3.31;;;;;;;19.32;42.57;100774.62;;;;-53
2021/03/10 11:13:13;;;;;;;3.82;2.99;;;;;;;19.35;42.58;100769.56;;;;-52
2021/03/10 11:16:13;;;;;;;3.33;2.77;;;;;;;19.37;42.53;100770.89;;;;-53
2021/03/10 11:19:13;;;;;;;4.04;2.67;;;;;;;19.40;42.56;100764.08;;;;-52
2021/03/10 11:22:13;;;;;;;3.80;2.89;;;;;;;19.40;42.52;100762.70;;;;-52
2021/03/10 11:25:13;;;;;;;3.44;2.80;;;;;;;19.42;42.34;100758.61;;;;-53
2021/03/10 11:28:13;;;;;;;7.69;3.02;;;;;;;19.43;42.35;100755.60;;;;-53
2021/03/10 11:31:13;;;;;;;4.47;2.75;;;;;;;19.45;42.42;100757.98;;;;-51
2021/03/10 11:34:13;;;;;;;4.00;2.57;;;;;;;19.46;42.40;100755.62;;;;-52
2021/03/10 11:37:14;;;;;;;3.99;2.80;;;;;;;19.47;42.38;100753.05;;;;-52
2021/03/10 11:40:13;;;;;;;3.07;2.58;;;;;;;19.48;42.33;100750.28;;;;-52
2021/03/10 11:43:16;;;;;;;3.19;2.55;;;;;;;19.49;42.34;100749.48;;;;-51
2021/03/10 11:46:13;;;;;;;3.29;2.51;;;;;;;19.51;42.34;100752.28;;;;-52
2021/03/10 11:49:13;;;;;;;2.89;2.55;;;;;;;19.53;42.28;100745.23;;;;-51
2021/03/10 11:52:13;;;;;;;2.55;2.34;;;;;;;19.53;42.35;100737.99;;;;-51
2021/03/10 11:55:13;;;;;;;2.71;2.37;;;;;;;19.57;42.27;100740.86;;;;-52
2021/03/10 11:58:13;;;;;;;2.77;2.51;;;;;;;19.57;42.31;100735.00;;;;-51
2021/03/10 12:01:13;;;;;;;2.83;2.39;;;;;;;19.58;42.26;100731.53;;;;-52
2021/03/10 12:04:13;;;;;;;2.88;2.53;;;;;;;19.61;42.32;100734.48;;;;-52
2021/03/10 12:07:13;;;;;;;2.52;2.32;;;;;;;19.63;42.23;100726.69;;;;-52
2021/03/10 12:10:13;;;;;;;3.47;2.35;;;;;;;19.63;42.21;100721.52;;;;-52
2021/03/10 12:13:13;;;;;;;2.57;2.37;;;;;;;19.66;42.21;100722.34;;;;-52
2021/03/10 12:16:13;;;;;;;2.61;2.41;;;;;;;19.66;42.09;100710.72;;;;-52
2021/03/10 12:19:13;;;;;;;2.65;2.21;;;;;;;19.67;42.27;100711.31;;;;-52
2021/03/10 12:22:13;;;;;;;2.59;2.39;;;;;;;19.67;42.16;100704.53;;;;-49
2021/03/10 12:25:13;;;;;;;2.49;2.29;;;;;;;19.67;42.19;100700.55;;;;-48
2021/03/10 12:28:13;;;;;;;2.40;2.20;;;;;;;19.68;42.19;100697.89;;;;-52
2021/03/10 12:31:13;;;;;;;2.39;2.19;;;;;;;19.69;42.21;100697.23;;;;-51
2021/03/10 12:34:13;;;;;;;2.48;2.28;;;;;;;19.69;42.25;100690.97;;;;-48
2021/03/10 12:37:13;;;;;;;2.35;2.15;;;;;;;19.69;42.17;100686.34;;;;-48
2021/03/10 12:40:13;;;;;;;2.73;2.27;;;;;;;19.70;42.10;100684.25;;;;-52
2021/03/10 12:43:13;;;;;;;5.78;2.49;;;;;;;19.67;42.20;100675.38;;;;-58
2021/03/10 12:46:13;;;;;;;4.39;2.53;;;;;;;19.63;42.02;100674.01;;;;-55
2021/03/10 12:49:13;;;;;;;3.68;2.65;;;;;;;19.60;42.17;100668.79;;;;-60
2021/03/10 12:52:13;;;;;;;3.03;2.71;;;;;;;19.62;42.38;100666.70;;;;-62
2021/03/10 12:55:13;;;;;;;2.71;2.41;;;;;;;19.63;42.36;100665.88;;;;-61
2021/03/10 12:58:13;;;;;;;3.28;2.44;;;;;;;19.66;42.38;100664.05;;;;-56
2021/03/10 13:01:13;;;;;;;3.46;2.68;;;;;;;19.68;42.23;100665.38;;;;-52
2021/03/10 13:04:13;;;;;;;3.57;2.47;;;;;;;19.71;42.24;100661.19;;;;-57
2021/03/10 13:07:13;;;;;;;3.19;2.89;;;;;;;19.72;42.09;100661.29;;;;-57
2021/03/10 13:10:13;;;;;;;2.69;2.49;;;;;;;19.74;42.10;100661.14;;;;-55
2021/03/10 13:13:13;;;;;;;4.98;2.80;;;;;;;19.74;41.83;100666.03;;;;-53
2021/03/10 13:16:13;;;;;;;2.91;2.63;;;;;;;19.76;42.17;100669.38;;;;-53
2021/03/10 13:19:13;;;;;;;3.01;2.71;;;;;;;19.79;42.01;100662.07;;;;-57
2021/03/10 13:22:13;;;;;;;3.85;2.65;;;;;;;19.81;41.90;100646.87;;;;-57
2021/03/10 13:25:13;;;;;;;2.52;2.30;;;;;;;19.86;41.88;100641.05;;;;-57
2021/03/10 13:28:13;;;;;;;2.59;2.35;;;;;;;19.88;41.85;100630.98;;;;-58
2021/03/10 13:31:13;;;;;;;2.40;2.20;;;;;;;19.89;41.84;100630.52;;;;-57
2021/03/10 13:34:13;;;;;;;2.57;2.25;;;;;;;19.89;41.79;100622.78;;;;-58
2021/03/10 13:37:13;;;;;;;2.62;2.15;;;;;;;19.91;41.81;100624.51;;;;-57
2021/03/10 13:40:13;;;;;;;2.42;2.17;;;;;;;19.92;41.74;100620.03;;;;-57
2021/03/10 13:43:13;;;;;;;2.39;2.05;;;;;;;19.94;41.82;100621.62;;;;-57
2021/03/10 13:46:13;;;;;;;2.25;2.08;;;;;;;19.97;41.74;100616.26;;;;-58
2021/03/10 13:49:13;;;;;;;2.27;2.08;;;;;;;19.98;41.83;100612.27;;;;-58
2021/03/10 13:52:13;;;;;;;2.36;2.16;;;;;;;19.99;41.81;100610.83;;;;-58
2021/03/10 13:55:13;;;;;;;2.30;2.10;;;;;;;19.98;41.79;100605.38;;;;-58
2021/03/10 13:58:13;;;;;;;2.31;2.11;;;;;;;19.99;41.82;100606.51;;;;-58
2021/03/10 14:01:13;;;;;;;2.29;2.09;;;;;;;20.04;41.92;100603.77;;;;-56
2021/03/10 14:04:13;;;;;;;2.37;2.15;;;;;;;20.08;42.16;100601.44;;;;-52
2021/03/10 14:07:13;;;;;;;3.48;2.09;;;;;;;20.10;42.17;100604.13;;;;-56
2021/03/10 14:10:13;;;;;;;2.29;2.09;;;;;;;20.14;42.27;100596.27;;;;-56
2021/03/10 14:13:13;;;;;;;2.20;2.00;;;;;;;20.15;42.27;100588.20;;;;-58
2021/03/10 14:16:13;;;;;;;3.21;2.13;;;;;;;20.17;42.35;100587.64;;;;-58
2021/03/10 14:19:13;;;;;;;4.29;2.25;;;;;;;20.15;42.03;100580.58;;;;-58
2021/03/10 14:22:13;;;;;;;2.32;2.12;;;;;;;20.15;42.03;100584.97;;;;-57
2021/03/10 14:25:13;;;;;;;4.03;2.30;;;;;;;20.13;41.92;100580.41;;;;-59
2021/03/10 14:28:15;;;;;;;2.79;2.01;;;;;;;20.12;41.95;100584.45;;;;-58
2021/03/10 14:31:13;;;;;;;2.21;1.93;;;;;;;20.11;41.93;100585.28;;;;-57
2021/03/10 14:34:13;;;;;;;2.46;2.19;;;;;;;20.13;41.89;100583.39;;;;-58
2021/03/10 14:37:13;;;;;;;2.45;2.09;;;;;;;20.13;41.84;100580.81;;;;-57
2021/03/10 14:40:13;;;;;;;2.32;2.09;;;;;;;20.13;41.87;100579.73;;;;-58
2021/03/10 14:43:13;;;;;;;2.09;1.89;;;;;;;20.14;41.89;100581.38;;;;-58
2021/03/10 14:46:13;;;;;;;2.53;1.95;;;;;;;20.15;41.86;100575.83;;;;-59
2021/03/10 14:49:13;;;;;;;2.27;2.01;;;;;;;20.15;41.78;100569.35;;;;-58
2021/03/10 14:52:13;;;;;;;4.33;2.10;;;;;;;20.17;41.90;100565.63;;;;-58
2021/03/10 14:55:13;;;;;;;2.89;2.07;;;;;;;20.18;41.72;100561.22;;;;-59
2021/03/10 14:58:13;;;;;;;2.53;1.99;;;;;;;20.18;41.67;100551.29;;;;-59
2021/03/10 15:01:13;;;;;;;3.03;2.17;;;;;;;20.19;41.73;100548.11;;;;-58
2021/03/10 15:04:13;;;;;;;2.36;2.09;;;;;;;20.19;41.75;100556.28;;;;-59
2021/03/10 15:07:13;;;;;;;1.85;1.75;;;;;;;20.17;41.77;100561.80;;;;-60
2021/03/10 15:10:14;;;;;;;2.39;2.10;;;;;;;20.19;41.89;100559.77;;;;-53
2021/03/10 15:13:13;;;;;;;3.53;2.22;;;;;;;20.23;41.98;100561.48;;;;-56
2021/03/10 15:16:13;;;;;;;2.33;2.10;;;;;;;20.24;42.07;100557.19;;;;-52
2021/03/10 15:19:13;;;;;;;2.39;2.15;;;;;;;20.26;41.91;100544.02;;;;-59
2021/03/10 15:22:13;;;;;;;2.15;1.95;;;;;;;20.25;41.87;100540.17;;;;-60
2021/03/10 15:25:13;;;;;;;2.44;2.09;;;;;;;20.25;41.76;100530.23;;;;-59
2021/03/10 15:28:13;;;;;;;2.11;1.91;;;;;;;20.24;41.75;100527.64;;;;-59
2021/03/10 15:31:13;;;;;;;3.07;2.09;;;;;;;20.23;41.71;100521.03;;;;-60
2021/03/10 15:34:13;;;;;;;2.65;1.95;;;;;;;20.23;41.77;100527.65;;;;-60
2021/03/10 15:37:13;;;;;;;3.07;2.11;;;;;;;20.22;41.87;100528.77;;;;-50
2021/03/10 15:40:13;;;;;;;3.72;2.05;;;;;;;20.23;42.10;100529.77;;;;-48
2021/03/10 15:43:13;;;;;;;2.20;2.00;;;;;;;20.25;42.19;100524.56;;;;-53
2021/03/10 15:46:13;;;;;;;2.14;1.90;;;;;;;20.27;42.32;100525.28;;;;-51
2021/03/10 15:49:13;;;;;;;2.10;1.90;;;;;;;20.29;42.34;100522.77;;;;-57
2021/03/10 15:52:13;;;;;;;2.45;2.10;;;;;;;20.30;42.44;100516.68;;;;-54
2021/03/10 15:55:13;;;;;;;3.45;2.19;;;;;;;20.30;41.98;100511.16;;;;-56
2021/03/10 15:58:13;;;;;;;5.10;2.11;;;;;;;20.33;42.12;100506.27;;;;-52
2021/03/10 16:01:13;;;;;;;5.45;2.13;;;;;;;20.33;41.96;100505.70;;;;-53
2021/03/10 16:04:13;;;;;;;2.23;2.00;;;;;;;20.30;41.79;100500.90;;;;-51
2021/03/10 16:07:13;;;;;;;2.87;2.11;;;;;;;20.31;41.91;100492.91;;;;-51
2021/03/10 16:10:13;;;;;;;2.43;1.94;;;;;;;20.31;41.87;100488.11;;;;-49
2021/03/10 16:13:13;;;;;;;2.56;2.11;;;;;;;20.32;41.79;100489.19;;;;-58
2021/03/10 16:16:13;;;;;;;2.81;1.93;;;;;;;20.33;41.77;100490.23;;;;-57
2021/03/10 16:19:16;;;;;;;2.57;2.01;;;;;;;20.33;41.75;100483.31;;;;-57
2021/03/10 16:22:13;;;;;;;2.92;1.87;;;;;;;20.31;41.84;100476.80;;;;-57
2021/03/10 16:25:13;;;;;;;4.75;2.96;;;;;;;20.26;41.66;100476.63;;;;-59
2021/03/10 16:28:13;;;;;;;4.43;2.73;;;;;;;20.22;41.50;100481.42;;;;-57
2021/03/10 16:31:13;;;;;;;4.77;2.43;;;;;;;20.19;41.53;100474.09;;;;-51
2021/03/10 16:34:13;;;;;;;4.42;2.61;;;;;;;20.18;41.67;100473.17;;;;-53
2021/03/10 16:37:13;;;;;;;4.51;2.39;;;;;;;20.17;41.75;100471.70;;;;-55
2021/03/10 16:40:13;;;;;;;3.85;2.33;;;;;;;20.18;41.78;100463.58;;;;-51